Time;durP1;ratioP1;P1;durP2;ratioP2;P2;SDS_P1;SDS_P2;PMS_P1;PMS_P2;Temp;Humidity;BMP_temperature;BMP_pressure;BME280_temperature;BME280_humidity;BME280_pressure;Samples;Min_cycle;Max_cycle;Signal;HPM_P1;HPM_P2
2022/12/22 03:27:12;;;;;;;1999.90;999.90;;;13.00;99.90;;;;;;5052736;28;20056;-75
2022/12/22 03:29:38;;;;;;;1999.90;999.90;;;13.00;99.90;;;;;;5053145;28;20479;-75
2022/12/22 03:32:04;;;;;;;1999.90;999.90;;;13.00;99.90;;;;;;5052690;28;20081;-74
2022/12/22 03:34:29;;;;;;;1999.90;999.90;;;13.10;99.90;;;;;;5052647;28;20028;-75
2022/12/22 03:36:55;;;;;;;1999.90;999.90;;;13.10;99.90;;;;;;5051402;28;20547;-74
2022/12/22 03:39:21;;;;;;;1999.90;999.90;;;13.10;99.90;;;;;;5052955;28;20063;-75
2022/12/22 03:47:14;;;;;;;1999.90;999.90;;;13.00;99.90;;;;;;5052488;28;20032;-76
2022/12/22 03:49:40;;;;;;;1999.90;999.90;;;13.10;99.90;;;;;;5052650;28;20021;-75
2022/12/22 03:52:05;;;;;;;1999.90;999.90;;;13.10;99.90;;;;;;5052097;28;20068;-75
2022/12/22 03:54:31;;;;;;;1999.90;999.90;;;13.10;99.90;;;;;;5052523;28;20031;-75
2022/12/22 03:56:57;;;;;;;1999.90;999.90;;;13.00;99.90;;;;;;5051935;28;20484;-75
2022/12/22 03:59:22;;;;;;;1999.90;999.90;;;13.00;99.90;;;;;;5052622;28;20352;-75
2022/12/22 04:01:50;;;;;;;1999.90;999.90;;;12.90;99.90;;;;;;5052363;28;20078;-75
2022/12/22 04:04:18;;;;;;;1999.90;999.90;;;12.80;99.90;;;;;;5052188;28;20052;-75
2022/12/22 04:06:44;;;;;;;1999.90;999.90;;;12.70;99.90;;;;;;5052090;28;20037;-75
2022/12/22 04:09:10;;;;;;;1999.90;999.90;;;12.70;99.90;;;;;;5052447;28;20087;-74
2022/12/22 04:14:20;;;;;;;1999.90;999.90;;;12.60;99.90;;;;;;5052272;28;20051;-75
2022/12/22 04:16:46;;;;;;;1999.90;999.90;;;12.60;99.90;;;;;;5051379;28;20025;-75
2022/12/22 04:19:12;;;;;;;1999.90;999.90;;;12.60;99.90;;;;;;5052530;28;20028;-75
2022/12/22 04:21:37;;;;;;;1999.90;999.90;;;12.50;99.90;;;;;;5051668;28;20112;-75
2022/12/22 04:24:04;;;;;;;1999.90;999.90;;;12.50;99.90;;;;;;5051908;28;20033;-76
2022/12/22 04:26:30;;;;;;;1999.90;999.90;;;12.50;99.90;;;;;;5051595;28;20407;-75
2022/12/22 04:28:55;;;;;;;1999.90;999.90;;;12.60;99.90;;;;;;5051851;28;20033;-75
2022/12/22 04:31:22;;;;;;;1999.90;999.90;;;12.70;99.90;;;;;;5052102;28;20064;-75
2022/12/22 04:33:47;;;;;;;1999.90;999.90;;;12.60;99.90;;;;;;5051984;28;20017;-75
2022/12/22 04:36:14;;;;;;;1999.90;999.90;;;12.60;99.90;;;;;;5050984;28;20017;-75
2022/12/22 04:38:39;;;;;;;1999.90;999.90;;;12.60;99.90;;;;;;5051812;28;20037;-75
2022/12/22 04:41:05;;;;;;;1999.90;999.90;;;12.60;99.90;;;;;;5051518;28;20480;-75
2022/12/22 04:43:31;;;;;;;1999.90;999.90;;;12.50;99.90;;;;;;5052054;28;20033;-75
2022/12/22 04:45:57;;;;;;;1999.90;999.90;;;12.50;99.90;;;;;;5049686;28;20041;-75
2022/12/22 04:48:24;;;;;;;1999.90;999.90;;;12.50;99.90;;;;;;5051772;28;20092;-76
2022/12/22 04:50:52;;;;;;;1999.90;999.90;;;12.50;99.90;;;;;;5051235;28;20106;-74
2022/12/22 04:53:19;;;;;;;1999.90;999.90;;;12.50;99.90;;;;;;5051983;28;20071;-75
2022/12/22 04:55:49;;;;;;;1999.90;999.90;;;12.60;99.90;;;;;;5050021;28;20025;-75
2022/12/22 04:58:15;;;;;;;1999.90;999.90;;;12.70;99.90;;;;;;5050491;28;20511;-75
2022/12/22 05:00:41;;;;;;;1999.90;999.90;;;12.70;99.90;;;;;;5051398;28;20098;-75
2022/12/22 05:03:07;;;;;;;1999.90;999.90;;;12.80;99.90;;;;;;5052052;28;20033;-75
2022/12/22 05:05:34;;;;;;;1999.90;999.90;;;12.80;99.90;;;;;;5051677;28;20033;-75
2022/12/22 05:08:03;;;;;;;1999.90;999.90;;;12.80;99.90;;;;;;5051599;28;20021;-76
2022/12/22 05:10:29;;;;;;;1999.90;999.90;;;12.70;99.90;;;;;;5051548;28;20043;-75
2022/12/22 05:12:55;;;;;;;1999.90;999.90;;;12.80;99.90;;;;;;5050899;28;20074;-75
2022/12/22 05:15:23;;;;;;;1999.90;999.90;;;12.80;99.90;;;;;;5052060;28;20028;-75
2022/12/22 05:17:49;;;;;;;1999.90;999.90;;;12.80;99.90;;;;;;5051530;28;20017;-74
2022/12/22 05:20:15;;;;;;;1999.90;999.90;;;12.80;99.90;;;;;;5049690;28;20017;-75
2022/12/22 05:22:41;;;;;;;1999.90;999.90;;;12.80;99.90;;;;;;5051375;28;20534;-75
2022/12/22 05:25:07;;;;;;;1999.90;999.90;;;12.70;99.90;;;;;;5051531;28;20029;-75
2022/12/22 05:27:33;;;;;;;1999.90;999.90;;;12.70;99.90;;;;;;5050034;28;20025;-75
2022/12/22 05:29:58;;;;;;;1999.90;999.90;;;12.70;99.90;;;;;;5051187;28;20236;-75
2022/12/22 05:32:24;;;;;;;1999.90;999.90;;;12.70;99.90;;;;;;5051252;28;20107;-75
2022/12/22 05:34:49;;;;;;;1999.90;999.90;;;12.60;99.90;;;;;;5051120;28;20388;-75
2022/12/22 05:37:15;;;;;;;1999.90;999.90;;;12.60;99.90;;;;;;5051669;28;20388;-74
2022/12/22 05:39:41;;;;;;;1999.90;999.90;;;12.60;99.90;;;;;;5051511;28;20491;-75
2022/12/22 05:42:06;;;;;;;1999.90;999.90;;;12.60;99.90;;;;;;5050728;28;20096;-75
2022/12/22 05:44:32;;;;;;;1999.90;999.90;;;12.50;99.90;;;;;;5051170;28;20025;-76
2022/12/22 05:46:57;;;;;;;1999.90;999.90;;;12.50;99.90;;;;;;5050635;28;20092;-75
2022/12/22 05:49:23;;;;;;;1999.90;999.90;;;12.50;99.90;;;;;;5054694;28;20029;-75
2022/12/22 05:51:50;;;;;;;1999.90;999.90;;;12.50;99.90;;;;;;5054640;28;20036;-75
2022/12/22 05:54:16;;;;;;;1999.90;999.90;;;12.50;99.90;;;;;;5053934;28;20033;-76
2022/12/22 05:56:41;;;;;;;1999.90;999.90;;;12.40;99.90;;;;;;5054284;28;20032;-75
2022/12/22 05:59:08;;;;;;;1999.90;999.90;;;12.40;99.90;;;;;;5054607;28;20020;-75
2022/12/22 06:01:34;;;;;;;1999.90;999.90;;;12.40;99.90;;;;;;5054216;28;20025;-75
2022/12/22 06:04:00;;;;;;;1999.90;999.90;;;12.40;99.90;;;;;;5054027;28;20103;-75
2022/12/22 06:06:25;;;;;;;1999.90;999.90;;;12.30;99.90;;;;;;5054483;28;20448;-74
2022/12/22 06:08:51;;;;;;;1999.90;999.90;;;12.40;99.90;;;;;;5054266;28;20028;-75
2022/12/22 06:11:18;;;;;;;1999.90;999.90;;;12.50;99.90;;;;;;5054301;28;20036;-75
2022/12/22 06:13:44;;;;;;;1999.90;999.90;;;12.60;99.90;;;;;;5054039;28;20045;-75
2022/12/22 06:16:10;;;;;;;1999.90;999.90;;;12.70;99.90;;;;;;5054388;28;20025;-75
2022/12/22 06:18:36;;;;;;;1999.90;999.90;;;12.70;99.90;;;;;;5054475;28;20025;-75
2022/12/22 06:21:02;;;;;;;1999.90;999.90;;;12.70;99.90;;;;;;5053834;28;20508;-75
2022/12/22 06:23:27;;;;;;;1999.90;999.90;;;12.70;99.90;;;;;;5054232;28;20392;-74
2022/12/22 06:25:58;;;;;;;1999.90;999.90;;;12.60;99.90;;;;;;5053768;28;20395;-75
2022/12/22 06:28:24;;;;;;;1999.90;999.90;;;12.70;99.90;;;;;;5053968;28;20515;-76
2022/12/22 06:30:50;;;;;;;1999.90;999.90;;;12.70;99.90;;;;;;5053884;28;20030;-75
2022/12/22 06:33:16;;;;;;;1999.90;999.90;;;12.70;99.90;;;;;;5053884;28;20111;-76
2022/12/22 06:35:41;;;;;;;1999.90;999.90;;;12.70;99.90;;;;;;5048320;28;20485;-75
2022/12/22 06:38:07;;;;;;;1999.90;999.90;;;12.70;99.90;;;;;;5033585;28;20097;-75
2022/12/22 06:40:33;;;;;;;1999.90;999.90;;;12.70;99.90;;;;;;5033606;28;20511;-75
2022/12/22 06:43:07;;;;;;;1999.90;999.90;;;12.70;99.90;;;;;;5033533;28;20428;-75
2022/12/22 06:45:34;;;;;;;1999.90;999.90;;;12.70;99.90;;;;;;5048709;28;20039;-76
2022/12/22 06:48:00;;;;;;;1999.90;999.90;;;12.70;99.90;;;;;;5050857;28;20468;-75
2022/12/22 06:50:25;;;;;;;1999.90;999.90;;;12.70;99.90;;;;;;5050039;28;20036;-75
2022/12/22 06:52:51;;;;;;;1999.90;999.90;;;12.80;99.90;;;;;;5052603;28;20112;-75
2022/12/22 06:55:17;;;;;;;1999.90;999.90;;;12.80;99.90;;;;;;5052855;28;20480;-77
2022/12/22 06:57:42;;;;;;;1999.90;999.90;;;12.80;99.90;;;;;;5052630;28;20494;-76
2022/12/22 07:00:09;;;;;;;1999.90;999.90;;;12.80;99.90;;;;;;5050161;28;20028;-74
2022/12/22 07:02:34;;;;;;;1999.90;999.90;;;12.90;99.90;;;;;;5051117;28;20391;-76
2022/12/22 07:05:00;;;;;;;1999.90;999.90;;;12.90;99.90;;;;;;5051991;28;20057;-77
2022/12/22 07:07:26;;;;;;;1999.90;999.90;;;12.90;99.90;;;;;;5070706;28;20037;-76
2022/12/22 07:09:51;;;;;;;1999.90;999.90;;;13.00;99.90;;;;;;5060471;28;20041;-76
2022/12/22 07:12:17;;;;;;;1999.90;999.90;;;12.90;99.90;;;;;;5051244;28;20040;-75
2022/12/22 07:14:42;;;;;;;1999.90;999.90;;;12.90;99.90;;;;;;5051824;28;20515;-75
2022/12/22 07:17:08;;;;;;;1999.90;999.90;;;12.80;99.90;;;;;;5050951;28;20021;-75
2022/12/22 07:19:35;;;;;;;1999.90;999.90;;;12.80;99.90;;;;;;5067026;28;20407;-75
2022/12/22 07:22:00;;;;;;;1999.90;999.90;;;12.80;99.90;;;;;;5054187;28;20025;-77
2022/12/22 07:24:28;;;;;;;1999.90;999.90;;;12.80;99.90;;;;;;5068497;28;20040;-75
2022/12/22 07:26:53;;;;;;;1999.90;999.90;;;12.70;99.90;;;;;;5071194;28;20099;-76
2022/12/22 07:29:19;;;;;;;1999.90;999.90;;;12.70;99.90;;;;;;5051145;28;20119;-76
2022/12/22 07:31:45;;;;;;;1999.90;999.90;;;12.70;99.90;;;;;;5051769;28;20047;-75
2022/12/22 07:34:11;;;;;;;1999.90;999.90;;;12.70;99.90;;;;;;5051529;28;20491;-76
2022/12/22 07:36:36;;;;;;;1999.90;999.90;;;12.60;99.90;;;;;;5052195;28;20055;-75
2022/12/22 07:39:02;;;;;;;1999.90;999.90;;;12.60;99.90;;;;;;5039041;28;20098;-75
2022/12/22 07:44:12;;;;;;;1999.90;999.90;;;12.60;99.90;;;;;;5053285;28;20083;-76
2022/12/22 07:46:39;;;;;;;1999.90;999.90;;;12.60;99.90;;;;;;5052117;28;20025;-76
2022/12/22 07:51:50;;;;;;;1999.90;999.90;;;12.60;99.90;;;;;;5034489;28;20087;-75
2022/12/22 07:54:16;;;;;;;1999.90;999.90;;;12.80;99.90;;;;;;5046140;28;20025;-75
2022/12/22 07:56:43;;;;;;;1999.90;999.90;;;12.90;99.90;;;;;;5045362;28;20056;-75
2022/12/22 07:59:10;;;;;;;1999.90;999.90;;;12.90;99.90;;;;;;5040921;28;20029;-75
2022/12/22 08:01:35;;;;;;;1999.90;999.90;;;13.00;99.90;;;;;;5048381;28;20025;-75
2022/12/22 08:04:01;;;;;;;1999.90;999.90;;;13.00;99.90;;;;;;5062340;28;20053;-76
2022/12/22 08:06:27;;;;;;;1999.90;999.90;;;13.10;99.90;;;;;;5071342;28;20048;-76
2022/12/22 08:08:53;;;;;;;1999.90;999.90;;;13.10;99.90;;;;;;5070267;28;20036;-76
2022/12/22 08:11:19;;;;;;;1999.90;999.90;;;13.10;99.90;;;;;;5068384;28;20036;-77
2022/12/22 08:13:45;;;;;;;1999.90;999.90;;;13.10;99.90;;;;;;5064905;28;20036;-76
2022/12/22 08:16:12;;;;;;;1999.90;999.90;;;13.10;99.90;;;;;;5045524;28;20052;-75
2022/12/22 08:18:38;;;;;;;1999.90;999.90;;;13.10;99.90;;;;;;5048287;28;20025;-75
2022/12/22 08:21:05;;;;;;;1999.90;999.90;;;13.10;99.90;;;;;;5053657;28;20024;-75
2022/12/22 08:23:32;;;;;;;1999.90;999.90;;;13.10;99.90;;;;;;5056584;28;20032;-76
2022/12/22 08:26:37;;;;;;;1999.90;999.90;;;13.10;99.90;;;;;;5044944;28;20476;-77
2022/12/22 08:29:12;;;;;;;1999.90;999.90;;;13.10;99.90;;;;;;5041211;28;20483;-75
2022/12/22 08:31:39;;;;;;;1999.90;999.90;;;13.20;99.90;;;;;;5052315;28;20075;-75
2022/12/22 08:34:09;;;;;;;1999.90;999.90;;;13.10;99.90;;;;;;5061084;28;20032;-75
2022/12/22 08:36:39;;;;;;;1999.90;999.90;;;13.10;99.90;;;;;;5050617;28;20029;-76
2022/12/22 08:39:06;;;;;;;1999.90;999.90;;;13.20;99.90;;;;;;5040960;28;20021;-76
2022/12/22 08:41:51;;;;;;;1999.90;999.90;;;13.10;99.90;;;;;;5050581;28;20468;-75
2022/12/22 08:44:21;;;;;;;1999.90;999.90;;;13.10;99.90;;;;;;5048247;28;20037;-76
2022/12/22 08:46:47;;;;;;;1999.90;999.90;;;13.10;99.90;;;;;;5035221;28;20031;-76
2022/12/22 08:49:12;;;;;;;1999.90;999.90;;;13.10;99.90;;;;;;5052140;28;20041;-76
2022/12/22 08:51:38;;;;;;;1999.90;999.90;;;13.10;99.90;;;;;;5050793;28;20117;-76
2022/12/22 08:54:04;;;;;;;1999.90;999.90;;;13.20;99.90;;;;;;5050986;28;20032;-75
2022/12/22 08:56:30;;;;;;;1999.90;999.90;;;13.30;99.90;;;;;;5051332;28;20025;-76
2022/12/22 08:58:56;;;;;;;1999.90;999.90;;;13.30;99.90;;;;;;5050345;28;20029;-75
2022/12/22 09:01:22;;;;;;;1999.90;999.90;;;13.30;99.90;;;;;;5050232;28;20095;-75
2022/12/22 09:03:52;;;;;;;1999.90;999.90;;;13.30;99.90;;;;;;5053914;28;20056;-76
2022/12/22 09:06:22;;;;;;;1999.90;999.90;;;13.30;99.90;;;;;;5050629;28;20072;-76
2022/12/22 09:08:52;;;;;;;1999.90;999.90;;;13.20;99.90;;;;;;5049217;28;20090;-75
2022/12/22 09:11:17;;;;;;;1999.90;999.90;;;13.30;99.90;;;;;;5048080;28;20047;-74
2022/12/22 09:13:43;;;;;;;1999.90;999.90;;;13.30;99.90;;;;;;5051884;28;20403;-74
2022/12/22 09:16:08;;;;;;;1999.90;999.90;;;13.30;99.90;;;;;;5045824;28;20060;-76
2022/12/22 09:18:35;;;;;;;1999.90;999.90;;;13.40;99.90;;;;;;5046348;28;20029;-75
2022/12/22 09:21:00;;;;;;;1999.90;999.90;;;13.40;99.90;;;;;;5044409;28;20553;-75
2022/12/22 09:23:28;;;;;;;1999.90;999.90;;;13.50;99.90;;;;;;5048821;28;20041;-74
2022/12/22 09:25:54;;;;;;;1999.90;999.90;;;13.60;99.90;;;;;;5051784;28;20021;-75
2022/12/22 09:28:20;;;;;;;1999.90;999.90;;;13.60;99.90;;;;;;5051736;28;20029;-75
2022/12/22 09:30:52;;;;;;;1999.90;999.90;;;13.60;99.90;;;;;;5050374;28;20043;-76
2022/12/22 09:33:18;;;;;;;1999.90;999.90;;;13.60;99.90;;;;;;5053112;28;20053;-74
2022/12/22 09:35:43;;;;;;;1999.90;999.90;;;13.60;99.90;;;;;;5055960;28;20501;-74
2022/12/22 09:38:09;;;;;;;1999.90;999.90;;;13.60;99.90;;;;;;5053873;28;20151;-74
2022/12/22 09:40:35;;;;;;;1999.90;999.90;;;13.60;99.90;;;;;;5047745;28;20040;-74
2022/12/22 09:43:02;;;;;;;1999.90;999.90;;;13.60;99.90;;;;;;5052665;28;20412;-75
2022/12/22 09:45:29;;;;;;;1999.90;999.90;;;13.60;99.90;;;;;;5053856;28;20507;-75
2022/12/22 09:47:55;;;;;;;1999.90;999.90;;;13.60;99.90;;;;;;5052722;28;20143;-74
2022/12/22 09:50:25;;;;;;;1999.90;999.90;;;13.60;99.90;;;;;;5054907;28;20037;-74
2022/12/22 09:53:03;;;;;;;1999.90;999.90;;;13.60;99.90;;;;;;5052991;28;20048;-74
2022/12/22 09:55:37;;;;;;;1999.90;999.90;;;13.60;99.90;;;;;;5051298;28;20032;-75
2022/12/22 09:58:10;;;;;;;1999.90;999.90;;;13.70;99.90;;;;;;5053434;28;20078;-75
2022/12/22 10:00:37;;;;;;;1999.90;999.90;;;13.70;99.90;;;;;;5051991;28;20028;-75
2022/12/22 10:03:15;;;;;;;1999.90;999.90;;;13.80;99.90;;;;;;5050611;28;20112;-74
2022/12/22 10:05:55;;;;;;;1999.90;999.90;;;13.80;99.90;;;;;;5051139;28;20167;-74
2022/12/22 10:08:27;;;;;;;1999.90;999.90;;;13.90;99.90;;;;;;5042752;28;20495;-75
2022/12/22 10:10:55;;;;;;;1999.90;999.90;;;13.80;99.90;;;;;;5066119;28;20067;-75
2022/12/22 10:13:21;;;;;;;1999.90;999.90;;;13.80;99.90;;;;;;5072874;28;20036;-73
2022/12/22 10:15:47;;;;;;;1999.90;999.90;;;13.70;99.90;;;;;;5053137;28;20100;-75
2022/12/22 10:18:19;;;;;;;1999.90;999.90;;;13.70;99.90;;;;;;5041891;28;20480;-73
2022/12/22 10:21:04;;;;;;;1999.90;999.90;;;13.70;99.90;;;;;;5052572;28;20044;-76
2022/12/22 10:23:34;;;;;;;1999.90;999.90;;;13.70;99.90;;;;;;5053136;28;20035;-75
2022/12/22 10:26:26;;;;;;;1999.90;999.90;;;13.70;99.90;;;;;;5059828;28;20107;-74
2022/12/22 10:29:04;;;;;;;1999.90;999.90;;;13.70;99.90;;;;;;5053293;28;20032;-75
2022/12/22 10:31:32;;;;;;;1999.90;999.90;;;13.60;99.90;;;;;;5053703;28;20025;-73
2022/12/22 10:34:19;;;;;;;1999.90;999.90;;;13.60;99.90;;;;;;5052112;28;20025;-76
2022/12/22 10:36:50;;;;;;;1999.90;999.90;;;13.60;99.90;;;;;;5046406;28;20495;-75
2022/12/22 10:39:22;;;;;;;1999.90;999.90;;;13.60;99.90;;;;;;5042035;28;20021;-75
2022/12/22 10:41:50;;;;;;;1999.90;999.90;;;13.60;99.90;;;;;;5056426;28;20028;-74
2022/12/22 10:44:15;;;;;;;1999.90;999.90;;;13.60;99.90;;;;;;5052291;28;20045;-73
2022/12/22 10:46:49;;;;;;;1999.90;999.90;;;13.60;99.90;;;;;;5052369;28;20086;-76
2022/12/22 10:49:20;;;;;;;1999.90;999.90;;;13.60;99.90;;;;;;5048441;28;20488;-76
2022/12/22 10:51:51;;;;;;;1999.90;999.90;;;13.60;99.90;;;;;;5052846;28;20017;-74
2022/12/22 10:54:27;;;;;;;1999.90;999.90;;;13.60;99.90;;;;;;5063208;28;20039;-74
2022/12/22 10:57:06;;;;;;;1999.90;999.90;;;13.60;99.90;;;;;;5064210;28;20480;-74
2022/12/22 10:59:33;;;;;;;1999.90;999.90;;;13.60;99.90;;;;;;5058991;28;20024;-75
2022/12/22 11:02:25;;;;;;;1999.90;999.90;;;13.70;99.90;;;;;;5052349;28;20013;-75
2022/12/22 11:04:52;;;;;;;1999.90;999.90;;;13.70;99.90;;;;;;5064417;28;20645;-75
2022/12/22 11:07:18;;;;;;;1999.90;999.90;;;13.70;99.90;;;;;;5057936;28;20024;-73
2022/12/22 11:09:44;;;;;;;1999.90;999.90;;;13.70;99.90;;;;;;5054827;28;20107;-74
2022/12/22 11:12:34;;;;;;;1999.90;999.90;;;13.80;99.90;;;;;;5049429;28;20132;-73
2022/12/22 11:15:12;;;;;;;1999.90;999.90;;;13.80;99.90;;;;;;5051492;28;20026;-76
2022/12/22 11:17:57;;;;;;;1999.90;999.90;;;13.80;99.90;;;;;;5052397;28;20087;-74
2022/12/22 11:20:53;;;;;;;1999.90;999.90;;;13.90;99.90;;;;;;5051200;28;20131;-74
2022/12/22 11:23:46;;;;;;;1999.90;999.90;;;14.00;99.90;;;;;;5053372;28;20086;-74
2022/12/22 11:26:42;;;;;;;1999.90;999.90;;;14.00;99.90;;;;;;5053457;28;20043;-73
2022/12/22 11:29:45;;;;;;;1999.90;999.90;;;14.00;99.90;;;;;;5058510;28;20495;-74
2022/12/22 11:32:28;;;;;;;1999.90;999.90;;;14.00;99.90;;;;;;5063930;28;20025;-72
2022/12/22 11:35:18;;;;;;;1999.90;999.90;;;14.00;99.90;;;;;;5057357;28;20079;-74
2022/12/22 11:37:44;;;;;;;1999.90;999.90;;;13.90;99.90;;;;;;5051759;28;20078;-73
2022/12/22 11:40:31;;;;;;;1999.90;999.90;;;13.90;99.90;;;;;;5062740;28;20017;-74
2022/12/22 11:43:24;;;;;;;1999.90;999.90;;;13.80;99.90;;;;;;5052535;28;20033;-74
2022/12/22 11:45:53;;;;;;;1999.90;999.90;;;13.70;99.90;;;;;;5066342;28;20039;-73
2022/12/22 11:48:21;;;;;;;1999.90;999.90;;;13.70;99.90;;;;;;5059906;28;20171;-74
2022/12/22 11:50:52;;;;;;;1999.90;999.90;;;13.60;99.90;;;;;;5050200;28;20493;-74
2022/12/22 11:53:21;;;;;;;1999.90;999.90;;;13.60;99.90;;;;;;5061457;28;20031;-75
2022/12/22 11:56:00;;;;;;;1999.90;999.90;;;13.70;99.90;;;;;;5051110;28;20017;-75
2022/12/22 11:58:51;;;;;;;1999.90;999.90;;;13.60;99.90;;;;;;5050453;28;20841;-74
2022/12/22 12:01:31;;;;;;;1999.90;999.90;;;13.60;99.90;;;;;;5055108;28;20099;-74
2022/12/22 12:04:42;;;;;;;1999.90;999.90;;;13.70;99.90;;;;;;5047879;28;20064;-75
2022/12/22 12:07:21;;;;;;;1999.90;999.90;;;13.70;99.90;;;;;;5045505;28;20044;-76
2022/12/22 12:10:14;;;;;;;1999.90;999.90;;;13.60;99.90;;;;;;5047023;28;20029;-75
2022/12/22 12:13:07;;;;;;;1999.90;999.90;;;13.60;99.90;;;;;;5049946;28;20037;-74
2022/12/22 12:15:47;;;;;;;1999.90;999.90;;;13.60;99.90;;;;;;5046751;28;20100;-75
2022/12/22 12:18:32;;;;;;;1999.90;999.90;;;13.50;99.90;;;;;;5056399;28;20028;-75
2022/12/22 12:21:34;;;;;;;1999.90;999.90;;;13.50;99.90;;;;;;5057430;28;20104;-75
2022/12/22 12:24:24;;;;;;;1999.90;999.90;;;13.50;99.90;;;;;;5037177;28;20045;-74
2022/12/22 12:27:11;;;;;;;1999.90;999.90;;;13.50;99.90;;;;;;5049345;28;20119;-74
2022/12/22 12:29:55;;;;;;;1999.90;999.90;;;13.50;99.90;;;;;;5042183;28;20028;-73
2022/12/22 12:32:28;;;;;;;1999.90;999.90;;;13.40;99.90;;;;;;5044614;28;20068;-76
2022/12/22 12:35:04;;;;;;;1999.90;999.90;;;13.50;99.90;;;;;;5047459;28;20521;-73
2022/12/22 12:37:37;;;;;;;1999.90;999.90;;;13.40;99.90;;;;;;5047993;28;20046;-72
2022/12/22 12:40:15;;;;;;;;;;;13.40;99.90;;;;;;5054331;28;20024;-75
2022/12/22 12:42:45;;;;;;;1999.90;999.90;;;13.40;99.90;;;;;;5057659;28;19923;-73
2022/12/22 12:45:36;;;;;;;1999.90;999.90;;;13.40;99.90;;;;;;5046172;28;20033;-75
2022/12/22 12:48:20;;;;;;;1999.90;999.90;;;13.30;99.90;;;;;;5040907;28;20033;-73
2022/12/22 12:50:47;;;;;;;1999.90;999.90;;;13.20;99.90;;;;;;5047429;28;20021;-74
2022/12/22 12:53:14;;;;;;;1999.90;999.90;;;13.20;99.90;;;;;;5056175;28;20029;-74
2022/12/22 12:55:40;;;;;;;1999.90;999.90;;;13.30;99.90;;;;;;5058932;28;20074;-68
2022/12/22 12:58:10;;;;;;;1999.90;999.90;;;13.30;99.90;;;;;;5066295;28;20439;-73
2022/12/22 13:00:36;;;;;;;1999.90;999.90;;;13.20;99.90;;;;;;5053230;28;20029;-73
2022/12/22 13:03:32;;;;;;;1999.90;999.90;;;13.30;99.90;;;;;;5054671;28;20033;-75
2022/12/22 13:06:03;;;;;;;1999.90;999.90;;;13.30;99.90;;;;;;5053287;28;20060;-73
2022/12/22 13:08:53;;;;;;;1999.90;999.90;;;13.30;99.90;;;;;;5048595;28;20092;-72
2022/12/22 13:11:28;;;;;;;1999.90;999.90;;;13.30;99.90;;;;;;5048473;28;20029;-71
2022/12/22 13:13:55;;;;;;;1999.90;999.90;;;13.30;99.90;;;;;;5051847;28;20017;-73
2022/12/22 13:16:22;;;;;;;1999.90;999.90;;;13.30;99.90;;;;;;5051352;28;20078;-70
2022/12/22 13:18:48;;;;;;;1999.90;999.90;;;13.40;99.90;;;;;;5051390;28;20554;-72
2022/12/22 13:21:21;;;;;;;1999.90;999.90;;;13.40;99.90;;;;;;5047725;28;20036;-72
2022/12/22 13:24:22;;;;;;;1999.90;999.90;;;13.40;99.90;;;;;;5046739;28;20051;-73
2022/12/22 13:26:53;;;;;;;1999.90;999.90;;;13.40;99.90;;;;;;5047815;28;20040;-73
2022/12/22 13:29:25;;;;;;;1999.90;999.90;;;13.50;99.90;;;;;;5049922;28;20108;-72
2022/12/22 13:31:56;;;;;;;1999.90;999.90;;;13.50;99.90;;;;;;5048223;28;20052;-76
2022/12/22 13:34:35;;;;;;;1999.90;999.90;;;13.50;99.90;;;;;;5049652;28;20032;-73
2022/12/22 13:37:18;;;;;;;1999.90;999.90;;;13.50;99.90;;;;;;5053380;28;20029;-75
2022/12/22 13:40:10;;;;;;;1999.90;999.90;;;13.60;99.90;;;;;;5058894;28;20146;-74
2022/12/22 13:42:48;;;;;;;1999.90;999.90;;;13.70;99.90;;;;;;5047543;28;20025;-75
2022/12/22 13:45:44;;;;;;;1999.90;999.90;;;13.70;99.90;;;;;;5055551;28;20098;-74
2022/12/22 13:48:15;;;;;;;1999.90;999.90;;;13.70;99.90;;;;;;5061192;28;20074;-74
2022/12/22 13:51:08;;;;;;;1999.90;999.90;;;13.70;99.90;;;;;;5052486;28;20041;-74
2022/12/22 13:53:42;;;;;;;1999.90;999.90;;;13.70;99.90;;;;;;5048835;28;20068;-74
2022/12/22 13:56:13;;;;;;;1999.90;999.90;;;13.70;99.90;;;;;;5058832;28;20040;-76
2022/12/22 13:58:44;;;;;;;1999.90;999.90;;;13.70;99.90;;;;;;5053099;28;20116;-74
2022/12/22 14:01:09;;;;;;;1999.90;999.90;;;13.70;99.90;;;;;;5052613;28;20199;-74
2022/12/22 14:03:48;;;;;;;1999.90;999.90;;;13.70;99.90;;;;;;5051811;28;20068;-73
2022/12/22 14:06:35;;;;;;;1999.90;999.90;;;13.70;99.90;;;;;;5050124;28;20025;-74
2022/12/22 14:09:11;;;;;;;1999.90;999.90;;;13.70;99.90;;;;;;5054490;28;20045;-73
2022/12/22 14:11:37;;;;;;;1999.90;999.90;;;13.70;99.90;;;;;;5062994;28;20032;-73
2022/12/22 14:14:13;;;;;;;1999.90;999.90;;;13.70;99.90;;;;;;5052776;28;20373;-74
2022/12/22 14:16:45;;;;;;;1999.90;999.90;;;13.70;99.90;;;;;;5072522;28;20522;-74
2022/12/22 14:19:13;;;;;;;1999.90;999.90;;;13.80;99.90;;;;;;5059677;28;20029;-75
2022/12/22 14:21:41;;;;;;;1999.90;999.90;;;13.70;99.90;;;;;;5052788;28;20039;-74
2022/12/22 14:24:22;;;;;;;1999.90;999.90;;;13.80;99.90;;;;;;5049857;28;20029;-74
2022/12/22 14:26:49;;;;;;;1999.90;999.90;;;13.80;99.90;;;;;;5050335;28;20082;-75
2022/12/22 14:29:21;;;;;;;1999.90;999.90;;;13.70;99.90;;;;;;5067123;28;20052;-74
2022/12/22 14:32:03;;;;;;;1999.90;999.90;;;13.70;99.90;;;;;;5060728;28;20130;-73
2022/12/22 14:34:33;;;;;;;1999.90;999.90;;;13.80;99.90;;;;;;5050778;28;20029;-75
2022/12/22 14:37:00;;;;;;;1999.90;999.90;;;13.80;99.90;;;;;;5052180;28;20032;-79
2022/12/22 14:39:31;;;;;;;1999.90;999.90;;;13.70;99.90;;;;;;5050889;28;20487;-74
2022/12/22 14:42:02;;;;;;;1999.90;999.90;;;13.70;99.90;;;;;;5047613;28;20349;-74
2022/12/22 14:44:29;;;;;;;1999.90;999.90;;;13.70;99.90;;;;;;5049094;28;20516;-75
2022/12/22 14:47:06;;;;;;;1999.90;999.90;;;13.70;99.90;;;;;;5042409;28;20038;-75
2022/12/22 14:49:33;;;;;;;1999.90;999.90;;;13.70;99.90;;;;;;5052136;28;20033;-75
2022/12/22 14:52:14;;;;;;;1999.90;999.90;;;13.70;99.90;;;;;;5046064;28;20029;-79
2022/12/22 14:54:44;;;;;;;1999.90;999.90;;;13.70;99.90;;;;;;5053003;28;20033;-75
2022/12/22 14:57:10;;;;;;;1999.90;999.90;;;13.80;99.90;;;;;;5046156;28;20520;-76
2022/12/22 14:59:36;;;;;;;1999.90;999.90;;;13.90;99.90;;;;;;5045534;28;20025;-74
2022/12/22 15:02:24;;;;;;;1999.90;999.90;;;13.90;99.90;;;;;;5046719;28;20040;-74
2022/12/22 15:05:09;;;;;;;1999.90;999.90;;;13.80;99.90;;;;;;5049979;28;20057;-74
2022/12/22 15:07:43;;;;;;;1999.90;999.90;;;14.00;99.90;;;;;;5047742;28;20407;-77
2022/12/22 15:10:09;;;;;;;1999.90;999.90;;;13.90;99.90;;;;;;5059074;28;20024;-78
2022/12/22 15:12:35;;;;;;;1999.90;999.90;;;14.00;99.90;;;;;;5058991;28;20050;-75
2022/12/22 15:15:01;;;;;;;1999.90;999.90;;;13.90;99.90;;;;;;5047765;28;20434;-75
2022/12/22 15:17:27;;;;;;;1999.90;999.90;;;14.00;99.90;;;;;;5050054;28;20024;-78
2022/12/22 15:19:57;;;;;;;1999.90;999.90;;;14.00;99.90;;;;;;5044726;28;20025;-73
2022/12/22 15:22:23;;;;;;;1999.90;999.90;;;14.00;99.90;;;;;;5044971;28;20098;-73
2022/12/22 15:24:49;;;;;;;1999.90;999.90;;;14.00;99.90;;;;;;5051346;28;20039;-73
2022/12/22 15:27:14;;;;;;;1999.90;999.90;;;14.00;99.90;;;;;;5064520;28;20032;-79
2022/12/22 15:29:40;;;;;;;1999.90;999.90;;;14.00;99.90;;;;;;5065667;28;20128;-76
2022/12/22 15:32:11;;;;;;;1999.90;999.90;;;13.90;99.90;;;;;;5049927;28;20453;-74
2022/12/22 15:34:37;;;;;;;1999.90;999.90;;;14.00;99.90;;;;;;5038304;28;20026;-75
2022/12/22 15:37:02;;;;;;;1999.90;999.90;;;14.00;99.90;;;;;;5043504;28;20033;-74
2022/12/22 15:39:28;;;;;;;1999.90;999.90;;;13.90;99.90;;;;;;5052303;28;20048;-74
2022/12/22 15:41:53;;;;;;;1999.90;999.90;;;13.90;99.90;;;;;;5060155;28;20036;-75
2022/12/22 15:44:21;;;;;;;1999.90;999.90;;;13.90;99.90;;;;;;5065634;28;20017;-76
2022/12/22 15:46:54;;;;;;;1999.90;999.90;;;13.80;99.90;;;;;;5060460;28;20085;-73
2022/12/22 15:49:23;;;;;;;1999.90;999.90;;;13.80;99.90;;;;;;5060728;28;20137;-76
2022/12/22 15:51:53;;;;;;;1999.90;999.90;;;13.80;99.90;;;;;;5059606;28;20036;-74
2022/12/22 15:54:19;;;;;;;1999.90;999.90;;;13.80;99.90;;;;;;5072073;28;20399;-73
2022/12/22 15:56:46;;;;;;;1999.90;999.90;;;13.70;99.90;;;;;;5053665;28;20536;-76